sensor_id;sensor_type;location;lat;lon;timestamp;P1;durP1;ratioP1;P2;durP2;ratioP2
23258;SDS011;11798;51.528;7.240;2022-10-23T00:01:23;8.63;;;3.70;;
23258;SDS011;11798;51.528;7.240;2022-10-23T00:03:54;6.03;;;2.80;;
23258;SDS011;11798;51.528;7.240;2022-10-23T00:06:21;10.27;;;3.23;;
23258;SDS011;11798;51.528;7.240;2022-10-23T00:08:48;5.23;;;2.83;;
23258;SDS011;11798;51.528;7.240;2022-10-23T00:11:15;7.13;;;2.90;;
23258;SDS011;11798;51.528;7.240;2022-10-23T00:13:43;12.37;;;3.33;;
23258;SDS011;11798;51.528;7.240;2022-10-23T00:16:10;6.57;;;3.20;;
23258;SDS011;11798;51.528;7.240;2022-10-23T00:18:36;7.60;;;3.30;;
23258;SDS011;11798;51.528;7.240;2022-10-23T00:21:03;9.73;;;3.23;;
23258;SDS011;11798;51.528;7.240;2022-10-23T00:23:29;5.60;;;2.77;;
23258;SDS011;11798;51.528;7.240;2022-10-23T00:25:55;10.73;;;3.53;;
23258;SDS011;11798;51.528;7.240;2022-10-23T00:28:20;11.70;;;3.70;;
23258;SDS011;11798;51.528;7.240;2022-10-23T00:30:46;9.77;;;3.13;;
23258;SDS011;11798;51.528;7.240;2022-10-23T00:33:12;8.90;;;3.43;;
23258;SDS011;11798;51.528;7.240;2022-10-23T00:35:38;8.33;;;3.57;;
23258;SDS011;11798;51.528;7.240;2022-10-23T00:38:04;9.43;;;4.27;;
23258;SDS011;11798;51.528;7.240;2022-10-23T00:40:30;10.30;;;3.50;;
23258;SDS011;11798;51.528;7.240;2022-10-23T00:42:56;7.33;;;3.13;;
23258;SDS011;11798;51.528;7.240;2022-10-23T00:45:23;8.47;;;3.33;;
23258;SDS011;11798;51.528;7.240;2022-10-23T00:47:50;10.40;;;3.37;;
23258;SDS011;11798;51.528;7.240;2022-10-23T00:50:18;9.63;;;3.40;;
23258;SDS011;11798;51.528;7.240;2022-10-23T00:52:48;7.77;;;3.53;;
23258;SDS011;11798;51.528;7.240;2022-10-23T00:55:15;8.03;;;3.10;;
23258;SDS011;11798;51.528;7.240;2022-10-23T00:57:44;8.67;;;3.10;;
23258;SDS011;11798;51.528;7.240;2022-10-23T01:00:14;8.93;;;3.23;;
23258;SDS011;11798;51.528;7.240;2022-10-23T01:02:51;8.73;;;3.33;;
23258;SDS011;11798;51.528;7.240;2022-10-23T01:05:19;10.57;;;3.50;;
23258;SDS011;11798;51.528;7.240;2022-10-23T01:07:50;7.57;;;3.10;;
23258;SDS011;11798;51.528;7.240;2022-10-23T01:10:29;8.33;;;3.40;;
23258;SDS011;11798;51.528;7.240;2022-10-23T01:13:14;7.00;;;3.20;;
23258;SDS011;11798;51.528;7.240;2022-10-23T01:20:59;11.47;;;3.80;;
23258;SDS011;11798;51.528;7.240;2022-10-23T01:23:35;9.53;;;3.43;;
23258;SDS011;11798;51.528;7.240;2022-10-23T01:28:48;8.67;;;3.27;;
23258;SDS011;11798;51.528;7.240;2022-10-23T01:31:29;5.73;;;2.90;;
23258;SDS011;11798;51.528;7.240;2022-10-23T01:34:12;6.37;;;3.07;;
23258;SDS011;11798;51.528;7.240;2022-10-23T01:36:43;8.40;;;3.07;;
23258;SDS011;11798;51.528;7.240;2022-10-23T01:39:23;9.27;;;3.00;;
23258;SDS011;11798;51.528;7.240;2022-10-23T01:42:12;9.63;;;3.43;;
23258;SDS011;11798;51.528;7.240;2022-10-23T01:47:11;7.77;;;3.33;;
23258;SDS011;11798;51.528;7.240;2022-10-23T01:49:40;9.73;;;3.67;;
23258;SDS011;11798;51.528;7.240;2022-10-23T01:52:08;9.27;;;3.70;;
23258;SDS011;11798;51.528;7.240;2022-10-23T01:54:38;7.93;;;3.83;;
23258;SDS011;11798;51.528;7.240;2022-10-23T01:57:07;10.13;;;3.53;;
23258;SDS011;11798;51.528;7.240;2022-10-23T01:59:37;10.67;;;3.83;;
23258;SDS011;11798;51.528;7.240;2022-10-23T02:02:07;11.47;;;3.40;;
23258;SDS011;11798;51.528;7.240;2022-10-23T02:04:37;6.53;;;3.40;;
23258;SDS011;11798;51.528;7.240;2022-10-23T02:07:06;8.23;;;3.40;;
23258;SDS011;11798;51.528;7.240;2022-10-23T02:09:32;13.73;;;3.37;;
23258;SDS011;11798;51.528;7.240;2022-10-23T02:12:08;11.73;;;3.70;;
23258;SDS011;11798;51.528;7.240;2022-10-23T02:17:30;11.13;;;3.87;;
23258;SDS011;11798;51.528;7.240;2022-10-23T02:20:14;8.40;;;4.23;;
23258;SDS011;11798;51.528;7.240;2022-10-23T02:22:42;9.80;;;3.87;;
23258;SDS011;11798;51.528;7.240;2022-10-23T02:25:20;13.43;;;4.10;;
23258;SDS011;11798;51.528;7.240;2022-10-23T02:27:57;7.07;;;4.10;;
23258;SDS011;11798;51.528;7.240;2022-10-23T02:30:26;12.70;;;4.63;;
23258;SDS011;11798;51.528;7.240;2022-10-23T02:32:53;8.73;;;4.33;;
23258;SDS011;11798;51.528;7.240;2022-10-23T02:35:20;8.57;;;3.50;;
23258;SDS011;11798;51.528;7.240;2022-10-23T02:37:57;9.33;;;4.33;;
23258;SDS011;11798;51.528;7.240;2022-10-23T02:40:25;10.70;;;3.87;;
23258;SDS011;11798;51.528;7.240;2022-10-23T02:43:07;10.30;;;4.10;;
23258;SDS011;11798;51.528;7.240;2022-10-23T02:45:49;9.50;;;3.53;;
23258;SDS011;11798;51.528;7.240;2022-10-23T02:48:28;10.10;;;4.00;;
23258;SDS011;11798;51.528;7.240;2022-10-23T02:51:08;13.63;;;3.77;;
23258;SDS011;11798;51.528;7.240;2022-10-23T02:58:55;8.67;;;3.70;;
23258;SDS011;11798;51.528;7.240;2022-10-23T03:02:02;8.07;;;3.87;;
23258;SDS011;11798;51.528;7.240;2022-10-23T03:04:38;8.20;;;3.80;;
23258;SDS011;11798;51.528;7.240;2022-10-23T03:07:09;7.07;;;3.40;;
23258;SDS011;11798;51.528;7.240;2022-10-23T03:09:36;7.97;;;3.70;;
23258;SDS011;11798;51.528;7.240;2022-10-23T03:12:02;8.90;;;3.53;;
23258;SDS011;11798;51.528;7.240;2022-10-23T03:14:28;8.93;;;4.43;;
23258;SDS011;11798;51.528;7.240;2022-10-23T03:16:53;7.03;;;3.47;;
23258;SDS011;11798;51.528;7.240;2022-10-23T03:19:19;9.10;;;3.37;;
23258;SDS011;11798;51.528;7.240;2022-10-23T03:21:44;9.77;;;3.80;;
23258;SDS011;11798;51.528;7.240;2022-10-23T03:24:10;9.33;;;3.70;;
23258;SDS011;11798;51.528;7.240;2022-10-23T03:26:35;6.57;;;3.60;;
23258;SDS011;11798;51.528;7.240;2022-10-23T03:29:01;9.60;;;3.50;;
23258;SDS011;11798;51.528;7.240;2022-10-23T03:31:26;11.37;;;4.00;;
23258;SDS011;11798;51.528;7.240;2022-10-23T03:33:52;6.30;;;3.40;;
23258;SDS011;11798;51.528;7.240;2022-10-23T03:36:17;9.53;;;3.47;;
23258;SDS011;11798;51.528;7.240;2022-10-23T03:38:43;8.63;;;3.40;;
23258;SDS011;11798;51.528;7.240;2022-10-23T03:41:09;12.43;;;3.63;;
23258;SDS011;11798;51.528;7.240;2022-10-23T03:43:34;5.27;;;3.33;;
23258;SDS011;11798;51.528;7.240;2022-10-23T03:46:00;8.03;;;3.67;;
23258;SDS011;11798;51.528;7.240;2022-10-23T03:48:26;7.67;;;3.67;;
23258;SDS011;11798;51.528;7.240;2022-10-23T03:50:51;10.27;;;4.03;;
23258;SDS011;11798;51.528;7.240;2022-10-23T03:53:17;14.57;;;3.80;;
23258;SDS011;11798;51.528;7.240;2022-10-23T03:55:43;8.00;;;3.73;;
23258;SDS011;11798;51.528;7.240;2022-10-23T03:58:09;10.13;;;4.87;;
23258;SDS011;11798;51.528;7.240;2022-10-23T04:00:34;7.33;;;4.00;;
23258;SDS011;11798;51.528;7.240;2022-10-23T04:03:00;9.73;;;4.67;;
23258;SDS011;11798;51.528;7.240;2022-10-23T04:05:26;14.20;;;4.87;;
23258;SDS011;11798;51.528;7.240;2022-10-23T04:07:51;9.47;;;4.30;;
23258;SDS011;11798;51.528;7.240;2022-10-23T04:10:17;10.83;;;5.10;;
23258;SDS011;11798;51.528;7.240;2022-10-23T04:12:43;8.70;;;4.77;;
23258;SDS011;11798;51.528;7.240;2022-10-23T04:15:08;13.07;;;4.87;;
23258;SDS011;11798;51.528;7.240;2022-10-23T04:17:34;10.37;;;4.30;;
23258;SDS011;11798;51.528;7.240;2022-10-23T04:20:00;7.67;;;4.23;;
23258;SDS011;11798;51.528;7.240;2022-10-23T04:22:25;7.40;;;3.57;;
23258;SDS011;11798;51.528;7.240;2022-10-23T04:24:51;6.87;;;3.80;;
23258;SDS011;11798;51.528;7.240;2022-10-23T04:27:16;10.87;;;4.07;;
23258;SDS011;11798;51.528;7.240;2022-10-23T04:29:42;6.53;;;3.87;;
23258;SDS011;11798;51.528;7.240;2022-10-23T04:32:07;8.03;;;4.10;;
23258;SDS011;11798;51.528;7.240;2022-10-23T04:34:33;6.33;;;3.60;;
23258;SDS011;11798;51.528;7.240;2022-10-23T04:36:59;7.70;;;4.00;;
23258;SDS011;11798;51.528;7.240;2022-10-23T04:39:24;7.67;;;4.00;;
23258;SDS011;11798;51.528;7.240;2022-10-23T04:41:50;9.47;;;4.00;;
23258;SDS011;11798;51.528;7.240;2022-10-23T04:44:15;11.60;;;3.67;;
23258;SDS011;11798;51.528;7.240;2022-10-23T04:46:41;9.07;;;3.87;;
23258;SDS011;11798;51.528;7.240;2022-10-23T04:49:06;6.80;;;3.93;;
23258;SDS011;11798;51.528;7.240;2022-10-23T04:51:32;9.00;;;4.10;;
23258;SDS011;11798;51.528;7.240;2022-10-23T04:53:58;7.70;;;3.93;;
23258;SDS011;11798;51.528;7.240;2022-10-23T04:56:23;8.67;;;3.63;;
23258;SDS011;11798;51.528;7.240;2022-10-23T04:58:49;6.80;;;3.70;;
23258;SDS011;11798;51.528;7.240;2022-10-23T05:01:15;9.00;;;4.27;;
23258;SDS011;11798;51.528;7.240;2022-10-23T05:03:41;8.33;;;4.40;;
23258;SDS011;11798;51.528;7.240;2022-10-23T05:06:06;8.07;;;4.30;;
23258;SDS011;11798;51.528;7.240;2022-10-23T05:08:32;10.60;;;4.23;;
23258;SDS011;11798;51.528;7.240;2022-10-23T05:10:59;11.23;;;4.03;;
23258;SDS011;11798;51.528;7.240;2022-10-23T05:13:25;10.33;;;3.87;;
23258;SDS011;11798;51.528;7.240;2022-10-23T05:15:51;10.63;;;3.97;;
23258;SDS011;11798;51.528;7.240;2022-10-23T05:21:01;7.83;;;3.50;;
23258;SDS011;11798;51.528;7.240;2022-10-23T05:23:32;9.27;;;3.90;;
23258;SDS011;11798;51.528;7.240;2022-10-23T05:26:00;8.13;;;3.40;;
23258;SDS011;11798;51.528;7.240;2022-10-23T05:28:27;6.70;;;4.10;;
23258;SDS011;11798;51.528;7.240;2022-10-23T05:30:53;7.73;;;3.97;;
23258;SDS011;11798;51.528;7.240;2022-10-23T05:33:19;5.33;;;4.00;;
23258;SDS011;11798;51.528;7.240;2022-10-23T05:35:45;8.27;;;3.83;;
23258;SDS011;11798;51.528;7.240;2022-10-23T05:38:11;9.50;;;3.90;;
23258;SDS011;11798;51.528;7.240;2022-10-23T05:40:38;8.07;;;3.80;;
23258;SDS011;11798;51.528;7.240;2022-10-23T05:43:04;6.17;;;3.70;;
23258;SDS011;11798;51.528;7.240;2022-10-23T05:45:29;8.87;;;4.20;;
23258;SDS011;11798;51.528;7.240;2022-10-23T05:47:55;10.87;;;3.90;;
23258;SDS011;11798;51.528;7.240;2022-10-23T05:50:20;11.97;;;4.40;;
23258;SDS011;11798;51.528;7.240;2022-10-23T05:52:46;9.67;;;4.47;;
23258;SDS011;11798;51.528;7.240;2022-10-23T05:55:12;7.60;;;3.63;;
23258;SDS011;11798;51.528;7.240;2022-10-23T05:57:38;9.73;;;4.13;;
23258;SDS011;11798;51.528;7.240;2022-10-23T06:00:04;8.70;;;3.87;;
23258;SDS011;11798;51.528;7.240;2022-10-23T06:02:31;8.37;;;4.30;;
23258;SDS011;11798;51.528;7.240;2022-10-23T06:04:56;8.70;;;4.37;;
23258;SDS011;11798;51.528;7.240;2022-10-23T06:07:23;8.60;;;4.20;;
23258;SDS011;11798;51.528;7.240;2022-10-23T06:09:49;10.57;;;3.73;;
23258;SDS011;11798;51.528;7.240;2022-10-23T06:12:15;7.97;;;4.30;;
23258;SDS011;11798;51.528;7.240;2022-10-23T06:14:41;8.23;;;4.07;;
23258;SDS011;11798;51.528;7.240;2022-10-23T06:17:06;7.23;;;3.70;;
23258;SDS011;11798;51.528;7.240;2022-10-23T06:19:32;10.27;;;3.93;;
23258;SDS011;11798;51.528;7.240;2022-10-23T06:21:57;6.13;;;3.37;;
23258;SDS011;11798;51.528;7.240;2022-10-23T06:24:23;6.00;;;3.60;;
23258;SDS011;11798;51.528;7.240;2022-10-23T06:26:48;12.23;;;4.30;;
23258;SDS011;11798;51.528;7.240;2022-10-23T06:29:14;11.57;;;4.17;;
23258;SDS011;11798;51.528;7.240;2022-10-23T06:31:39;9.60;;;4.20;;
23258;SDS011;11798;51.528;7.240;2022-10-23T06:34:05;9.23;;;4.10;;
23258;SDS011;11798;51.528;7.240;2022-10-23T06:36:31;9.13;;;4.50;;
23258;SDS011;11798;51.528;7.240;2022-10-23T06:38:56;7.73;;;3.80;;
23258;SDS011;11798;51.528;7.240;2022-10-23T06:41:22;8.20;;;4.23;;
23258;SDS011;11798;51.528;7.240;2022-10-23T06:43:48;9.20;;;3.50;;
23258;SDS011;11798;51.528;7.240;2022-10-23T06:46:15;6.37;;;3.17;;
23258;SDS011;11798;51.528;7.240;2022-10-23T06:48:42;8.10;;;3.13;;
23258;SDS011;11798;51.528;7.240;2022-10-23T06:51:08;6.17;;;3.27;;
23258;SDS011;11798;51.528;7.240;2022-10-23T06:53:36;6.10;;;3.00;;
23258;SDS011;11798;51.528;7.240;2022-10-23T06:56:03;5.10;;;2.83;;
23258;SDS011;11798;51.528;7.240;2022-10-23T06:58:31;11.93;;;3.20;;
23258;SDS011;11798;51.528;7.240;2022-10-23T07:01:01;6.97;;;3.67;;
23258;SDS011;11798;51.528;7.240;2022-10-23T07:03:29;7.50;;;2.80;;
23258;SDS011;11798;51.528;7.240;2022-10-23T07:05:55;6.03;;;3.23;;
23258;SDS011;11798;51.528;7.240;2022-10-23T07:08:23;6.40;;;3.27;;
23258;SDS011;11798;51.528;7.240;2022-10-23T07:10:49;5.87;;;2.87;;
23258;SDS011;11798;51.528;7.240;2022-10-23T07:13:14;5.60;;;2.90;;
23258;SDS011;11798;51.528;7.240;2022-10-23T07:15:40;6.57;;;3.07;;
23258;SDS011;11798;51.528;7.240;2022-10-23T07:18:06;5.53;;;3.00;;
23258;SDS011;11798;51.528;7.240;2022-10-23T07:20:38;4.83;;;2.73;;
23258;SDS011;11798;51.528;7.240;2022-10-23T07:23:04;7.10;;;2.90;;
23258;SDS011;11798;51.528;7.240;2022-10-23T07:25:29;4.00;;;2.57;;
23258;SDS011;11798;51.528;7.240;2022-10-23T07:27:55;6.63;;;2.47;;
23258;SDS011;11798;51.528;7.240;2022-10-23T07:30:21;5.20;;;2.60;;
23258;SDS011;11798;51.528;7.240;2022-10-23T07:32:46;10.80;;;2.70;;
23258;SDS011;11798;51.528;7.240;2022-10-23T07:35:12;5.13;;;2.70;;
23258;SDS011;11798;51.528;7.240;2022-10-23T07:37:37;4.73;;;2.73;;
23258;SDS011;11798;51.528;7.240;2022-10-23T07:40:04;9.90;;;3.30;;
23258;SDS011;11798;51.528;7.240;2022-10-23T07:42:30;8.07;;;3.03;;
23258;SDS011;11798;51.528;7.240;2022-10-23T07:44:56;7.07;;;3.30;;
23258;SDS011;11798;51.528;7.240;2022-10-23T07:47:22;9.67;;;3.73;;
23258;SDS011;11798;51.528;7.240;2022-10-23T07:49:48;10.37;;;3.73;;
23258;SDS011;11798;51.528;7.240;2022-10-23T07:52:13;10.47;;;4.03;;
23258;SDS011;11798;51.528;7.240;2022-10-23T07:54:39;9.50;;;4.43;;
23258;SDS011;11798;51.528;7.240;2022-10-23T07:57:05;11.87;;;4.17;;
23258;SDS011;11798;51.528;7.240;2022-10-23T07:59:31;8.37;;;4.20;;
23258;SDS011;11798;51.528;7.240;2022-10-23T08:01:57;10.97;;;4.53;;
23258;SDS011;11798;51.528;7.240;2022-10-23T08:04:23;11.87;;;4.40;;
23258;SDS011;11798;51.528;7.240;2022-10-23T08:06:49;10.40;;;4.93;;
23258;SDS011;11798;51.528;7.240;2022-10-23T08:09:14;12.90;;;4.90;;
23258;SDS011;11798;51.528;7.240;2022-10-23T08:11:40;9.03;;;4.37;;
23258;SDS011;11798;51.528;7.240;2022-10-23T08:14:06;9.83;;;3.40;;
23258;SDS011;11798;51.528;7.240;2022-10-23T08:16:33;10.80;;;4.00;;
23258;SDS011;11798;51.528;7.240;2022-10-23T08:19:01;6.37;;;3.23;;
23258;SDS011;11798;51.528;7.240;2022-10-23T08:21:28;6.43;;;3.00;;
23258;SDS011;11798;51.528;7.240;2022-10-23T08:23:55;3.70;;;2.60;;
23258;SDS011;11798;51.528;7.240;2022-10-23T08:26:22;5.10;;;2.33;;
23258;SDS011;11798;51.528;7.240;2022-10-23T08:28:48;5.80;;;3.10;;
23258;SDS011;11798;51.528;7.240;2022-10-23T08:31:15;5.83;;;3.10;;
23258;SDS011;11798;51.528;7.240;2022-10-23T08:33:42;5.50;;;3.30;;
23258;SDS011;11798;51.528;7.240;2022-10-23T08:36:18;7.23;;;3.10;;
23258;SDS011;11798;51.528;7.240;2022-10-23T08:38:46;5.53;;;2.90;;
23258;SDS011;11798;51.528;7.240;2022-10-23T08:41:57;6.37;;;2.50;;
23258;SDS011;11798;51.528;7.240;2022-10-23T08:49:32;7.43;;;2.20;;
23258;SDS011;11798;51.528;7.240;2022-10-23T08:52:20;5.33;;;2.20;;
23258;SDS011;11798;51.528;7.240;2022-10-23T08:57:17;3.50;;;2.37;;
23258;SDS011;11798;51.528;7.240;2022-10-23T08:59:48;5.53;;;2.17;;
23258;SDS011;11798;51.528;7.240;2022-10-23T09:03:03;3.83;;;2.20;;
23258;SDS011;11798;51.528;7.240;2022-10-23T09:05:13;5.33;;;2.23;;
23258;SDS011;11798;51.528;7.240;2022-10-23T09:07:53;4.27;;;2.00;;
23258;SDS011;11798;51.528;7.240;2022-10-23T09:16:11;4.67;;;2.20;;
23258;SDS011;11798;51.528;7.240;2022-10-23T09:18:54;8.47;;;3.10;;
23258;SDS011;11798;51.528;7.240;2022-10-23T09:21:24;7.10;;;2.40;;
23258;SDS011;11798;51.528;7.240;2022-10-23T09:23:51;5.07;;;2.30;;
23258;SDS011;11798;51.528;7.240;2022-10-23T09:26:17;4.10;;;2.70;;
23258;SDS011;11798;51.528;7.240;2022-10-23T09:28:47;7.23;;;2.80;;
23258;SDS011;11798;51.528;7.240;2022-10-23T09:31:29;5.60;;;2.20;;
23258;SDS011;11798;51.528;7.240;2022-10-23T09:33:58;5.87;;;2.43;;
23258;SDS011;11798;51.528;7.240;2022-10-23T09:36:26;7.00;;;2.77;;
23258;SDS011;11798;51.528;7.240;2022-10-23T09:38:54;7.20;;;2.30;;
23258;SDS011;11798;51.528;7.240;2022-10-23T09:41:26;6.33;;;2.10;;
23258;SDS011;11798;51.528;7.240;2022-10-23T09:46:53;4.37;;;2.10;;
23258;SDS011;11798;51.528;7.240;2022-10-23T09:49:30;4.20;;;2.23;;
23258;SDS011;11798;51.528;7.240;2022-10-23T09:54:26;3.43;;;1.90;;
23258;SDS011;11798;51.528;7.240;2022-10-23T09:56:57;3.20;;;1.80;;
23258;SDS011;11798;51.528;7.240;2022-10-23T09:59:29;3.83;;;1.90;;
23258;SDS011;11798;51.528;7.240;2022-10-23T10:01:59;4.33;;;1.73;;
23258;SDS011;11798;51.528;7.240;2022-10-23T10:06:57;5.67;;;1.70;;
23258;SDS011;11798;51.528;7.240;2022-10-23T10:09:23;5.07;;;1.93;;
23258;SDS011;11798;51.528;7.240;2022-10-23T10:11:50;4.83;;;1.90;;
23258;SDS011;11798;51.528;7.240;2022-10-23T10:14:38;4.63;;;1.70;;
23258;SDS011;11798;51.528;7.240;2022-10-23T10:20:02;4.93;;;1.40;;
23258;SDS011;11798;51.528;7.240;2022-10-23T10:22:41;2.37;;;1.47;;
23258;SDS011;11798;51.528;7.240;2022-10-23T10:31:01;4.17;;;3.77;;
23258;SDS011;11798;51.528;7.240;2022-10-23T10:39:04;4.73;;;1.50;;
23258;SDS011;11798;51.528;7.240;2022-10-23T10:44:34;3.60;;;2.13;;
23258;SDS011;11798;51.528;7.240;2022-10-23T10:58:41;4.67;;;1.67;;
23258;SDS011;11798;51.528;7.240;2022-10-23T11:00:42;5.80;;;1.70;;
23258;SDS011;11798;51.528;7.240;2022-10-23T11:05:42;4.13;;;1.23;;
23258;SDS011;11798;51.528;7.240;2022-10-23T11:10:57;3.50;;;1.80;;
23258;SDS011;11798;51.528;7.240;2022-10-23T11:16:03;9.93;;;1.93;;
23258;SDS011;11798;51.528;7.240;2022-10-23T11:18:30;5.80;;;1.90;;
23258;SDS011;11798;51.528;7.240;2022-10-23T11:23:39;5.20;;;1.57;;
23258;SDS011;11798;51.528;7.240;2022-10-23T11:32:02;3.00;;;1.70;;
23258;SDS011;11798;51.528;7.240;2022-10-23T11:37:22;4.67;;;2.30;;
23258;SDS011;11798;51.528;7.240;2022-10-23T11:48:37;7.70;;;1.90;;
23258;SDS011;11798;51.528;7.240;2022-10-23T11:53:24;3.67;;;1.70;;
23258;SDS011;11798;51.528;7.240;2022-10-23T11:58:43;3.53;;;1.67;;
23258;SDS011;11798;51.528;7.240;2022-10-23T12:12:35;5.03;;;2.00;;
23258;SDS011;11798;51.528;7.240;2022-10-23T12:14:37;4.50;;;1.77;;
23258;SDS011;11798;51.528;7.240;2022-10-23T12:19:46;3.77;;;1.80;;
23258;SDS011;11798;51.528;7.240;2022-10-23T12:22:17;5.30;;;2.00;;
23258;SDS011;11798;51.528;7.240;2022-10-23T12:27:34;2.30;;;1.40;;
23258;SDS011;11798;51.528;7.240;2022-10-23T12:30:13;4.43;;;1.30;;
23258;SDS011;11798;51.528;7.240;2022-10-23T12:35:45;5.33;;;1.60;;
23258;SDS011;11798;51.528;7.240;2022-10-23T12:38:26;4.63;;;1.80;;
23258;SDS011;11798;51.528;7.240;2022-10-23T12:41:00;4.83;;;1.50;;
23258;SDS011;11798;51.528;7.240;2022-10-23T12:43:33;3.30;;;1.47;;
23258;SDS011;11798;51.528;7.240;2022-10-23T12:46:17;4.90;;;1.63;;
23258;SDS011;11798;51.528;7.240;2022-10-23T12:48:50;5.10;;;1.37;;
23258;SDS011;11798;51.528;7.240;2022-10-23T12:51:31;7.17;;;1.70;;
23258;SDS011;11798;51.528;7.240;2022-10-23T12:53:58;3.83;;;2.00;;
23258;SDS011;11798;51.528;7.240;2022-10-23T12:56:24;5.30;;;1.90;;
23258;SDS011;11798;51.528;7.240;2022-10-23T12:58:52;4.37;;;2.10;;
23258;SDS011;11798;51.528;7.240;2022-10-23T13:01:29;5.63;;;1.90;;
23258;SDS011;11798;51.528;7.240;2022-10-23T13:06:39;3.47;;;2.00;;
23258;SDS011;11798;51.528;7.240;2022-10-23T13:09:06;5.77;;;2.10;;
23258;SDS011;11798;51.528;7.240;2022-10-23T13:11:56;5.50;;;1.80;;
23258;SDS011;11798;51.528;7.240;2022-10-23T13:17:01;4.00;;;1.80;;
23258;SDS011;11798;51.528;7.240;2022-10-23T13:19:28;4.83;;;2.10;;
23258;SDS011;11798;51.528;7.240;2022-10-23T13:21:54;5.67;;;2.10;;
23258;SDS011;11798;51.528;7.240;2022-10-23T13:24:20;6.87;;;2.10;;
23258;SDS011;11798;51.528;7.240;2022-10-23T13:26:47;5.67;;;1.93;;
23258;SDS011;11798;51.528;7.240;2022-10-23T13:29:32;4.70;;;2.40;;
23258;SDS011;11798;51.528;7.240;2022-10-23T13:32:43;4.33;;;2.20;;
23258;SDS011;11798;51.528;7.240;2022-10-23T13:34:53;6.07;;;2.03;;
23258;SDS011;11798;51.528;7.240;2022-10-23T13:37:26;4.80;;;2.00;;
23258;SDS011;11798;51.528;7.240;2022-10-23T13:40:01;5.23;;;3.03;;
23258;SDS011;11798;51.528;7.240;2022-10-23T13:42:29;4.83;;;2.30;;
23258;SDS011;11798;51.528;7.240;2022-10-23T13:44:54;5.80;;;2.40;;
23258;SDS011;11798;51.528;7.240;2022-10-23T13:47:20;4.43;;;1.93;;
23258;SDS011;11798;51.528;7.240;2022-10-23T13:49:46;5.23;;;2.20;;
23258;SDS011;11798;51.528;7.240;2022-10-23T13:52:12;4.20;;;2.07;;
23258;SDS011;11798;51.528;7.240;2022-10-23T13:54:41;3.97;;;2.37;;
23258;SDS011;11798;51.528;7.240;2022-10-23T13:57:10;6.20;;;2.20;;
23258;SDS011;11798;51.528;7.240;2022-10-23T13:59:38;6.10;;;1.90;;
23258;SDS011;11798;51.528;7.240;2022-10-23T14:02:12;3.33;;;1.93;;
23258;SDS011;11798;51.528;7.240;2022-10-23T14:04:43;2.90;;;2.07;;
23258;SDS011;11798;51.528;7.240;2022-10-23T14:07:10;5.00;;;2.37;;
23258;SDS011;11798;51.528;7.240;2022-10-23T14:09:35;9.03;;;2.30;;
23258;SDS011;11798;51.528;7.240;2022-10-23T14:12:01;5.17;;;2.07;;
23258;SDS011;11798;51.528;7.240;2022-10-23T14:14:26;5.67;;;2.10;;
23258;SDS011;11798;51.528;7.240;2022-10-23T14:16:52;5.63;;;2.13;;
23258;SDS011;11798;51.528;7.240;2022-10-23T14:19:18;4.50;;;1.90;;
23258;SDS011;11798;51.528;7.240;2022-10-23T14:21:44;3.30;;;2.07;;
23258;SDS011;11798;51.528;7.240;2022-10-23T14:24:09;7.33;;;2.00;;
23258;SDS011;11798;51.528;7.240;2022-10-23T14:26:35;4.97;;;1.87;;
23258;SDS011;11798;51.528;7.240;2022-10-23T14:29:02;3.93;;;2.00;;
23258;SDS011;11798;51.528;7.240;2022-10-23T14:31:27;2.70;;;1.83;;
23258;SDS011;11798;51.528;7.240;2022-10-23T14:33:54;6.37;;;2.17;;
23258;SDS011;11798;51.528;7.240;2022-10-23T14:36:22;4.00;;;1.90;;
23258;SDS011;11798;51.528;7.240;2022-10-23T14:38:48;5.33;;;2.07;;
23258;SDS011;11798;51.528;7.240;2022-10-23T14:41:15;4.60;;;1.93;;
23258;SDS011;11798;51.528;7.240;2022-10-23T14:43:42;5.97;;;2.53;;
23258;SDS011;11798;51.528;7.240;2022-10-23T14:46:28;2.93;;;2.00;;
23258;SDS011;11798;51.528;7.240;2022-10-23T14:48:53;9.03;;;2.23;;
23258;SDS011;11798;51.528;7.240;2022-10-23T14:51:20;4.80;;;2.00;;
23258;SDS011;11798;51.528;7.240;2022-10-23T14:53:48;6.63;;;2.53;;
23258;SDS011;11798;51.528;7.240;2022-10-23T14:56:18;4.57;;;2.00;;
23258;SDS011;11798;51.528;7.240;2022-10-23T14:58:43;6.60;;;2.33;;
23258;SDS011;11798;51.528;7.240;2022-10-23T15:01:09;4.93;;;2.03;;
23258;SDS011;11798;51.528;7.240;2022-10-23T15:03:34;4.93;;;2.33;;
23258;SDS011;11798;51.528;7.240;2022-10-23T15:06:00;5.43;;;2.53;;
23258;SDS011;11798;51.528;7.240;2022-10-23T15:08:26;8.30;;;2.60;;
23258;SDS011;11798;51.528;7.240;2022-10-23T15:10:51;5.03;;;2.50;;
23258;SDS011;11798;51.528;7.240;2022-10-23T15:13:17;5.90;;;2.90;;
23258;SDS011;11798;51.528;7.240;2022-10-23T15:15:43;6.10;;;2.63;;
23258;SDS011;11798;51.528;7.240;2022-10-23T15:18:08;6.77;;;2.53;;
23258;SDS011;11798;51.528;7.240;2022-10-23T15:20:34;6.07;;;2.67;;
23258;SDS011;11798;51.528;7.240;2022-10-23T15:23:00;5.43;;;2.30;;
23258;SDS011;11798;51.528;7.240;2022-10-23T15:25:27;7.67;;;2.53;;
23258;SDS011;11798;51.528;7.240;2022-10-23T15:27:52;4.17;;;2.17;;
23258;SDS011;11798;51.528;7.240;2022-10-23T15:30:18;6.40;;;2.13;;
23258;SDS011;11798;51.528;7.240;2022-10-23T15:32:43;7.73;;;2.67;;
23258;SDS011;11798;51.528;7.240;2022-10-23T15:35:09;4.97;;;2.33;;
23258;SDS011;11798;51.528;7.240;2022-10-23T15:37:35;6.00;;;2.40;;
23258;SDS011;11798;51.528;7.240;2022-10-23T15:40:00;7.23;;;2.83;;
23258;SDS011;11798;51.528;7.240;2022-10-23T15:42:26;9.07;;;2.50;;
23258;SDS011;11798;51.528;7.240;2022-10-23T15:44:52;7.17;;;2.80;;
23258;SDS011;11798;51.528;7.240;2022-10-23T15:47:17;7.33;;;2.70;;
23258;SDS011;11798;51.528;7.240;2022-10-23T15:49:43;6.53;;;2.80;;
23258;SDS011;11798;51.528;7.240;2022-10-23T15:52:09;5.23;;;2.70;;
23258;SDS011;11798;51.528;7.240;2022-10-23T15:54:35;7.07;;;2.67;;
23258;SDS011;11798;51.528;7.240;2022-10-23T15:57:00;6.57;;;2.60;;
23258;SDS011;11798;51.528;7.240;2022-10-23T15:59:27;12.10;;;2.63;;
23258;SDS011;11798;51.528;7.240;2022-10-23T16:01:53;4.67;;;2.80;;
23258;SDS011;11798;51.528;7.240;2022-10-23T16:04:20;8.33;;;2.70;;
23258;SDS011;11798;51.528;7.240;2022-10-23T16:06:46;6.20;;;2.87;;
23258;SDS011;11798;51.528;7.240;2022-10-23T16:09:12;8.13;;;3.10;;
23258;SDS011;11798;51.528;7.240;2022-10-23T16:11:39;5.80;;;2.40;;
23258;SDS011;11798;51.528;7.240;2022-10-23T16:14:07;8.20;;;3.00;;
23258;SDS011;11798;51.528;7.240;2022-10-23T16:16:38;4.43;;;2.90;;
23258;SDS011;11798;51.528;7.240;2022-10-23T16:19:04;6.20;;;3.10;;
23258;SDS011;11798;51.528;7.240;2022-10-23T16:21:31;9.63;;;2.80;;
23258;SDS011;11798;51.528;7.240;2022-10-23T16:23:59;8.83;;;3.00;;
23258;SDS011;11798;51.528;7.240;2022-10-23T16:26:26;5.00;;;2.80;;
23258;SDS011;11798;51.528;7.240;2022-10-23T16:28:54;8.73;;;2.77;;
23258;SDS011;11798;51.528;7.240;2022-10-23T16:31:21;6.33;;;3.03;;
23258;SDS011;11798;51.528;7.240;2022-10-23T16:33:48;11.83;;;2.90;;
23258;SDS011;11798;51.528;7.240;2022-10-23T16:36:14;8.77;;;3.27;;
23258;SDS011;11798;51.528;7.240;2022-10-23T16:38:40;8.90;;;3.53;;
23258;SDS011;11798;51.528;7.240;2022-10-23T16:41:06;6.50;;;3.20;;
23258;SDS011;11798;51.528;7.240;2022-10-23T16:43:32;8.10;;;3.10;;
23258;SDS011;11798;51.528;7.240;2022-10-23T16:48:27;10.73;;;3.30;;
23258;SDS011;11798;51.528;7.240;2022-10-23T16:50:53;6.33;;;3.03;;
23258;SDS011;11798;51.528;7.240;2022-10-23T16:53:19;7.43;;;3.33;;
23258;SDS011;11798;51.528;7.240;2022-10-23T16:55:44;9.53;;;3.50;;
23258;SDS011;11798;51.528;7.240;2022-10-23T16:58:10;9.43;;;4.00;;
23258;SDS011;11798;51.528;7.240;2022-10-23T17:00:36;11.07;;;3.67;;
23258;SDS011;11798;51.528;7.240;2022-10-23T17:03:02;9.37;;;3.17;;
23258;SDS011;11798;51.528;7.240;2022-10-23T17:05:31;6.73;;;3.23;;